Time;durP1;ratioP1;P1;durP2;ratioP2;P2;SDS_P1;SDS_P2;PMS_P1;PMS_P2;Temp;Humidity;BMP_temperature;BMP_pressure;BME280_temperature;BME280_humidity;BME280_pressure;Samples;Min_cycle;Max_cycle;Signal;HPM_P1;HPM_P2
2022/11/20 00:01:44;;;;;;;19.63;17.52;;;;;;;-2.55;94.64;101133.34;6120457;23;20041;-84
2022/11/20 00:04:11;;;;;;;19.73;17.35;;;;;;;-2.52;95.01;101146.41;6120340;23;20005;-84
2022/11/20 00:06:36;;;;;;;19.98;17.85;;;;;;;-2.53;94.67;101137.72;6121457;23;20014;-85
2022/11/20 00:09:02;;;;;;;20.35;18.25;;;;;;;-2.61;94.44;101128.13;6121762;23;20088;-84
2022/11/20 00:11:29;;;;;;;21.60;18.88;;;;;;;-2.64;94.40;101128.94;6119681;23;20372;-84
2022/11/20 00:13:57;;;;;;;20.88;17.48;;;;;;;-2.64;94.35;101141.97;6121691;23;20053;-84
2022/11/20 00:16:24;;;;;;;22.70;19.23;;;;;;;-2.79;94.20;101134.06;6122874;23;20013;-85
2022/11/20 00:18:50;;;;;;;20.48;17.50;;;;;;;-2.73;95.29;101136.69;6120501;23;20006;-82
2022/11/20 00:21:21;;;;;;;21.45;18.70;;;;;;;-2.72;96.09;101145.38;6122137;23;20006;-84
2022/11/20 00:23:46;;;;;;;22.88;18.73;;;;;;;-2.80;95.26;101137.50;6122719;23;20005;-84
2022/11/20 00:26:15;;;;;;;21.08;17.95;;;;;;;-2.88;96.01;101131.38;6126238;23;20017;-84
2022/11/20 00:28:42;;;;;;;20.50;18.02;;;;;;;-2.80;96.87;101132.28;6126460;23;20006;-85
2022/11/20 00:31:15;;;;;;;21.55;17.83;;;;;;;-2.83;97.41;101129.69;6127319;23;20008;-85
2022/11/20 00:33:41;;;;;;;20.42;18.20;;;;;;;-2.81;97.91;101126.22;6127033;23;20080;-85
2022/11/20 00:36:11;;;;;;;21.65;19.02;;;;;;;-2.82;99.06;101126.22;6124919;23;20005;-83
2022/11/20 00:38:37;;;;;;;22.65;19.45;;;;;;;-2.82;98.91;101128.81;6125407;23;20005;-84
2022/11/20 00:41:05;;;;;;;22.10;19.65;;;;;;;-2.88;99.59;101124.44;6126553;23;20020;-81
2022/11/20 00:43:31;;;;;;;22.30;19.90;;;;;;;-2.95;99.51;101119.16;6125547;23;20002;-84
2022/11/20 00:46:00;;;;;;;24.88;20.10;;;;;;;-2.92;99.27;101133.09;6124655;23;20083;-84
2022/11/20 00:48:26;;;;;;;28.95;21.70;;;;;;;-2.99;99.45;101122.59;6125301;23;20030;-84
2022/11/20 00:50:53;;;;;;;27.08;21.20;;;;;;;-2.90;100.00;101127.88;6125312;23;20492;-84
2022/11/20 00:53:18;;;;;;;28.15;22.45;;;;;;;-2.95;100.00;101117.44;6127881;23;20376;-84
2022/11/20 00:56:01;;;;;;;25.25;20.67;;;;;;;-3.04;100.00;101110.41;6126269;23;20010;-85
2022/11/20 00:58:34;;;;;;;29.33;21.30;;;;;;;-2.98;100.00;101134.75;6124827;23;20006;-84
2022/11/20 01:01:02;;;;;;;28.95;21.92;;;;;;;-2.94;100.00;101132.19;6126891;23;20054;-84
2022/11/20 01:03:31;;;;;;;29.95;22.55;;;;;;;-3.00;100.00;101126.94;6125903;23;20061;-83
2022/11/20 01:06:03;;;;;;;28.27;21.67;;;;;;;-3.03;100.00;101117.34;6123692;23;20006;-83
2022/11/20 01:08:31;;;;;;;27.67;21.95;;;;;;;-3.10;100.00;101109.47;6121933;23;20089;-84
2022/11/20 01:11:11;;;;;;;26.38;21.38;;;;;;;-3.02;100.00;101128.63;6123647;23;20006;-84
2022/11/20 01:13:37;;;;;;;25.90;20.48;;;;;;;-3.05;100.00;101119.09;6122202;23;20008;-84
2022/11/20 01:16:19;;;;;;;24.33;20.23;;;;;;;-3.05;100.00;101134.72;6123104;23;20081;-84
2022/11/20 01:18:47;;;;;;;24.30;19.38;;;;;;;-3.05;100.00;101121.69;6122722;23;20091;-84
2022/11/20 01:21:19;;;;;;;22.70;19.70;;;;;;;-3.08;100.00;101124.25;6122283;23;20021;-84
2022/11/20 01:23:45;;;;;;;23.58;19.10;;;;;;;-3.08;100.00;101118.19;6120402;23;20069;-83
2022/11/20 01:26:16;;;;;;;23.17;18.92;;;;;;;-3.08;100.00;101133.81;6120709;23;20012;-84
2022/11/20 01:28:42;;;;;;;22.85;19.35;;;;;;;-3.04;100.00;101130.38;6122428;23;20013;-84
2022/11/20 01:31:19;;;;;;;22.10;18.95;;;;;;;-3.01;100.00;101131.28;6121984;23;20416;-84
2022/11/20 01:33:46;;;;;;;22.50;19.90;;;;;;;-2.90;100.00;101130.47;6120882;23;20119;-83
2022/11/20 01:36:13;;;;;;;25.17;20.73;;;;;;;-2.89;100.00;101116.59;6121885;23;20152;-84
2022/11/20 01:38:38;;;;;;;23.63;19.48;;;;;;;-2.80;100.00;101117.56;6121821;23;20037;-83
2022/11/20 01:41:05;;;;;;;22.67;19.25;;;;;;;-2.81;100.00;101104.50;6121762;23;20417;-84
2022/11/20 01:43:31;;;;;;;23.45;19.95;;;;;;;-2.67;100.00;101113.31;6123191;23;20010;-83
2022/11/20 01:46:18;;;;;;;22.75;20.25;;;;;;;-2.63;100.00;101114.22;6121576;23;20373;-83
2022/11/20 01:49:09;;;;;;;23.52;19.23;;;;;;;-2.53;100.00;101116.88;6122351;23;20001;-83
2022/11/20 01:51:42;;;;;;;22.67;19.48;;;;;;;-2.49;100.00;101114.31;6060916;23;20192;-83
2022/11/20 01:54:14;;;;;;;23.60;20.23;;;;;;;-2.57;100.00;101112.50;6035557;23;20038;-83
2022/11/20 01:56:44;;;;;;;24.17;19.25;;;;;;;-2.57;100.00;101115.13;6035819;23;20195;-84
2022/11/20 01:59:12;;;;;;;22.38;19.00;;;;;;;-2.54;100.00;101119.50;6060756;23;20010;-84
2022/11/20 02:01:38;;;;;;;23.02;19.98;;;;;;;-2.55;100.00;101109.91;6036096;23;20014;-84
2022/11/20 02:04:05;;;;;;;22.50;19.50;;;;;;;-2.47;100.00;101118.66;6059822;23;20421;-83
2022/11/20 02:06:45;;;;;;;21.83;19.25;;;;;;;-2.45;100.00;101121.28;6059919;23;20082;-82
2022/11/20 02:09:11;;;;;;;23.52;18.77;;;;;;;-2.37;100.00;101114.38;6058802;23;20018;-83
2022/11/20 02:11:36;;;;;;;23.45;19.58;;;;;;;-2.36;100.00;101106.56;6059578;23;20007;-83
2022/11/20 02:14:02;;;;;;;23.40;19.58;;;;;;;-2.32;99.29;101107.47;6059618;23;20010;-84
2022/11/20 02:16:33;;;;;;;22.35;18.88;;;;;;;-2.28;98.66;101104.00;6035866;23;20011;-83
2022/11/20 02:19:01;;;;;;;21.92;18.23;;;;;;;-2.20;98.27;101104.06;6061386;23;20035;-84
2022/11/20 02:21:40;;;;;;;24.35;19.02;;;;;;;-2.23;97.81;101099.69;6062028;23;20022;-84
2022/11/20 02:24:13;;;;;;;21.75;18.40;;;;;;;-2.29;97.72;101091.84;6059868;23;20409;-83
2022/11/20 02:26:53;;;;;;;21.40;19.10;;;;;;;-2.20;97.80;101101.44;6061933;23;20013;-84
2022/11/20 02:29:50;;;;;;;23.10;19.45;;;;;;;-2.19;97.57;101104.06;6110734;23;20101;-83
2022/11/20 02:32:25;;;;;;;21.55;18.77;;;;;;;-2.10;97.90;101098.88;6110557;23;20081;-84
2022/11/20 02:34:50;;;;;;;21.45;18.80;;;;;;;-2.10;97.68;101101.47;6121589;23;20032;-83
2022/11/20 02:37:16;;;;;;;22.80;19.27;;;;;;;-2.08;97.49;101094.56;6122717;23;20436;-84
2022/11/20 02:39:44;;;;;;;21.73;18.52;;;;;;;-2.15;97.40;101087.56;6122295;23;20057;-83
2022/11/20 02:42:09;;;;;;;20.95;18.45;;;;;;;-2.05;97.77;101093.69;6123615;23;19998;-83
2022/11/20 02:44:34;;;;;;;21.08;18.60;;;;;;;-2.16;96.34;101092.78;6122381;23;20052;-84
2022/11/20 02:47:00;;;;;;;21.13;18.67;;;;;;;-2.13;96.97;101088.44;6123794;23;20388;-84
2022/11/20 02:49:25;;;;;;;21.90;18.88;;;;;;;-2.12;97.57;101099.75;6126073;23;20013;-82
2022/11/20 02:51:51;;;;;;;24.20;19.30;;;;;;;-2.17;97.93;101102.34;6130014;23;20006;-83
2022/11/20 02:54:16;;;;;;;23.08;19.77;;;;;;;-2.13;97.82;101098.88;6127113;23;20093;-84
2022/11/20 02:56:42;;;;;;;23.00;19.08;;;;;;;-2.11;98.05;101101.50;6129820;23;20041;-84
2022/11/20 02:59:07;;;;;;;21.38;19.08;;;;;;;-2.09;97.56;101092.81;6127407;23;20247;-84
2022/11/20 03:01:33;;;;;;;20.67;18.38;;;;;;;-2.12;98.00;101087.56;6127385;23;20006;-84
2022/11/20 03:03:58;;;;;;;22.65;19.60;;;;;;;-2.09;98.32;101094.53;6123911;23;20009;-84
2022/11/20 03:06:24;;;;;;;23.23;19.75;;;;;;;-2.08;98.10;101091.94;6125034;23;20006;-83
2022/11/20 03:08:49;;;;;;;21.67;18.63;;;;;;;-2.04;98.41;101092.84;6123884;23;20006;-84
2022/11/20 03:11:14;;;;;;;21.08;18.65;;;;;;;-2.08;98.26;101078.03;6124109;23;20002;-83
2022/11/20 03:13:39;;;;;;;23.88;18.92;;;;;;;-2.10;98.59;101070.19;6120949;23;20006;-82
2022/11/20 03:16:11;;;;;;;24.23;19.67;;;;;;;-2.02;98.58;101086.75;6124176;23;20059;-83
2022/11/20 03:18:36;;;;;;;22.42;19.50;;;;;;;-1.95;99.20;101089.41;6123472;23;20080;-84
2022/11/20 03:21:02;;;;;;;21.92;19.13;;;;;;;-1.97;99.57;101078.06;6122183;23;20030;-83
2022/11/20 03:23:30;;;;;;;21.90;19.50;;;;;;;-1.88;99.35;101086.81;6121693;23;20709;-81
2022/11/20 03:25:56;;;;;;;24.02;20.10;;;;;;;-1.93;99.13;101078.09;6127124;23;20009;-84
2022/11/20 03:28:21;;;;;;;22.95;19.67;;;;;;;-1.93;99.04;101077.22;6125687;23;20061;-84
2022/11/20 03:30:46;;;;;;;21.60;19.20;;;;;;;-1.99;99.12;101070.25;6127961;23;20018;-83
2022/11/20 03:33:12;;;;;;;23.35;20.15;;;;;;;-2.02;99.21;101067.63;6123727;23;20002;-83
2022/11/20 03:35:37;;;;;;;23.50;19.63;;;;;;;-2.11;99.29;101049.31;6122037;23;20373;-83
2022/11/20 03:38:02;;;;;;;21.52;18.85;;;;;;;-2.03;99.44;101074.56;6121898;23;20030;-83
2022/11/20 03:40:27;;;;;;;22.70;19.25;;;;;;;-2.07;99.57;101067.59;6120744;23;20013;-83
2022/11/20 03:42:53;;;;;;;23.17;20.50;;;;;;;-2.21;99.99;101047.56;6119779;23;20006;-83
2022/11/20 03:45:18;;;;;;;22.77;19.10;;;;;;;-2.32;99.66;101058.78;6120648;23;20037;-83
2022/11/20 03:47:45;;;;;;;23.80;19.73;;;;;;;-2.37;99.80;101051.81;6120024;23;20464;-82
2022/11/20 03:50:13;;;;;;;24.00;19.75;;;;;;;-2.47;100.00;101052.63;6119310;23;20006;-83
2022/11/20 03:52:38;;;;;;;22.55;19.95;;;;;;;-2.57;100.00;101049.09;6119641;23;20320;-83
2022/11/20 03:55:05;;;;;;;23.98;19.85;;;;;;;-2.56;100.00;101051.69;6118643;23;20014;-83
2022/11/20 03:57:30;;;;;;;23.52;19.80;;;;;;;-2.58;100.00;101052.56;6121513;23;20006;-84
2022/11/20 03:59:56;;;;;;;23.80;20.33;;;;;;;-2.61;100.00;101053.41;6120349;23;20010;-83
2022/11/20 04:02:21;;;;;;;26.83;19.83;;;;;;;-2.56;99.93;101058.66;6119107;23;20006;-83
2022/11/20 04:04:46;;;;;;;24.75;20.80;;;;;;;-2.58;99.55;101040.41;6119498;23;20195;-84
2022/11/20 04:07:12;;;;;;;23.73;20.77;;;;;;;-2.52;99.72;101040.44;6121032;23;20005;-83
2022/11/20 04:09:37;;;;;;;22.42;19.95;;;;;;;-2.48;99.78;101038.72;6119962;23;20336;-84
2022/11/20 04:12:02;;;;;;;23.67;20.80;;;;;;;-2.49;99.40;101030.91;6121773;23;20039;-84
2022/11/20 04:14:27;;;;;;;23.98;20.45;;;;;;;-2.45;99.64;101038.75;6121563;23;20025;-84
2022/11/20 04:16:53;;;;;;;24.63;20.80;;;;;;;-2.42;99.99;101038.75;6121743;23;20488;-84
2022/11/20 04:19:18;;;;;;;24.08;20.30;;;;;;;-2.40;99.21;101051.78;6122694;23;20133;-83
2022/11/20 04:21:44;;;;;;;25.55;20.85;;;;;;;-2.34;99.53;101038.78;6121138;23;20499;-83
2022/11/20 04:24:13;;;;;;;23.33;20.02;;;;;;;-2.44;99.50;101034.41;6119850;23;20002;-83
2022/11/20 04:26:38;;;;;;;24.35;20.00;;;;;;;-2.39;99.74;101043.09;6123770;23;20006;-83
2022/11/20 04:29:04;;;;;;;24.95;20.48;;;;;;;-2.28;99.98;101051.84;6122451;23;20021;-84
2022/11/20 04:31:33;;;;;;;24.20;20.55;;;;;;;-2.24;100.00;101048.41;6122972;23;20006;-83
2022/11/20 04:34:04;;;;;;;22.92;19.92;;;;;;;-2.23;99.84;101037.09;6121494;23;20013;-84
2022/11/20 04:36:30;;;;;;;23.02;19.67;;;;;;;-2.33;99.86;101017.09;6121541;23;20424;-84
2022/11/20 04:38:58;;;;;;;23.85;20.08;;;;;;;-2.26;99.53;101035.38;6123698;23;20002;-84
2022/11/20 04:41:27;;;;;;;24.35;20.17;;;;;;;-2.26;99.21;101037.06;6123962;23;20089;-83
2022/11/20 04:43:59;;;;;;;22.27;19.35;;;;;;;-2.31;99.24;101012.72;6123247;23;20021;-84
2022/11/20 04:46:26;;;;;;;23.08;20.15;;;;;;;-2.18;99.15;101038.00;6124642;23;20080;-84
2022/11/20 04:48:51;;;;;;;25.17;21.25;;;;;;;-2.19;99.43;101031.03;6123515;23;20417;-84
2022/11/20 04:51:17;;;;;;;24.52;20.13;;;;;;;-2.08;99.64;101033.69;6121986;23;20043;-84
2022/11/20 04:53:42;;;;;;;23.92;20.65;;;;;;;-2.08;99.06;101033.69;6120450;23;20008;-84
2022/11/20 04:56:10;;;;;;;23.50;19.25;;;;;;;-2.05;99.21;101039.81;6121695;23;20093;-83
2022/11/20 04:58:36;;;;;;;22.88;19.00;;;;;;;-2.02;99.10;101026.75;6121528;23;20002;-84
2022/11/20 05:01:03;;;;;;;23.15;19.85;;;;;;;-2.04;99.28;101025.88;6122622;23;20013;-83
2022/11/20 05:03:29;;;;;;;22.38;19.98;;;;;;;-2.00;99.03;101026.78;6121600;23;20090;-84
2022/11/20 05:05:54;;;;;;;26.63;20.80;;;;;;;-2.02;99.55;101024.16;6120365;23;20030;-84
2022/11/20 05:08:19;;;;;;;25.67;21.15;;;;;;;-2.00;99.75;101024.16;6123645;23;20010;-84
2022/11/20 05:10:44;;;;;;;23.52;19.92;;;;;;;-1.99;100.00;101019.81;6125195;23;20059;-84
2022/11/20 05:13:10;;;;;;;23.85;20.48;;;;;;;-2.09;99.90;101011.97;6123530;23;19998;-83
2022/11/20 05:15:35;;;;;;;24.90;20.75;;;;;;;-2.09;99.83;101018.91;6125356;23;20009;-83
2022/11/20 05:18:00;;;;;;;22.70;20.10;;;;;;;-2.20;100.00;101016.25;6129397;23;20030;-82
2022/11/20 05:20:25;;;;;;;27.05;20.88;;;;;;;-2.27;100.00;101004.06;6129320;23;20491;-84
2022/11/20 05:22:51;;;;;;;24.75;20.65;;;;;;;-2.37;100.00;101007.50;6128691;23;20009;-83
2022/11/20 05:25:16;;;;;;;24.50;20.85;;;;;;;-2.41;100.00;101006.63;6124739;23;20018;-83
2022/11/20 05:27:42;;;;;;;24.85;20.38;;;;;;;-2.55;100.00;101006.56;6121051;23;20006;-82
2022/11/20 05:30:08;;;;;;;24.60;20.27;;;;;;;-2.56;100.00;101012.59;6121976;23;20017;-84
2022/11/20 05:32:33;;;;;;;25.65;21.70;;;;;;;-2.62;100.00;100998.69;6121270;23;20002;-83
2022/11/20 05:34:58;;;;;;;25.10;21.95;;;;;;;-2.62;100.00;101009.97;6120625;23;20040;-83
2022/11/20 05:37:24;;;;;;;27.52;23.30;;;;;;;-2.53;100.00;101010.03;6121864;23;20013;-83
2022/11/20 05:39:49;;;;;;;25.23;22.13;;;;;;;-2.55;100.00;100987.41;6121681;23;20046;-83
2022/11/20 05:42:32;;;;;;;24.70;21.45;;;;;;;-2.38;100.00;100998.81;6120325;23;20006;-84
2022/11/20 05:44:59;;;;;;;27.20;22.75;;;;;;;-2.35;100.00;100995.34;6122008;23;20009;-84
2022/11/20 05:47:25;;;;;;;24.83;22.20;;;;;;;-2.23;100.00;101011.03;6120350;23;20025;-83
2022/11/20 05:49:51;;;;;;;25.50;22.70;;;;;;;-2.22;100.00;101009.28;6123504;23;20034;-84
2022/11/20 05:52:16;;;;;;;26.38;23.48;;;;;;;-2.11;100.00;101021.50;6123330;23;20002;-83
2022/11/20 05:54:41;;;;;;;29.00;23.58;;;;;;;-2.08;100.00;101012.84;6123763;23;20429;-84
2022/11/20 05:57:06;;;;;;;26.08;22.55;;;;;;;-2.16;100.00;101001.50;6123709;23;20006;-83
2022/11/20 05:59:32;;;;;;;26.55;23.65;;;;;;;-2.12;100.00;101003.25;6124199;23;20085;-83
2022/11/20 06:01:57;;;;;;;25.90;23.15;;;;;;;-2.02;100.00;101013.72;6124568;23;20029;-83
2022/11/20 06:04:22;;;;;;;25.30;22.60;;;;;;;-1.94;100.00;101026.78;6123307;23;20038;-83
2022/11/20 06:06:48;;;;;;;25.33;22.55;;;;;;;-1.89;100.00;101032.00;6121130;23;20144;-83
2022/11/20 06:09:13;;;;;;;26.60;23.63;;;;;;;-1.81;100.00;101028.56;6122805;23;20018;-83
2022/11/20 06:11:38;;;;;;;25.75;21.83;;;;;;;-1.69;100.00;101029.47;6121009;23;20006;-83
2022/11/20 06:14:04;;;;;;;24.30;21.48;;;;;;;-1.66;100.00;101032.09;6123716;23;20006;-83
2022/11/20 06:16:29;;;;;;;25.80;22.05;;;;;;;-1.68;100.00;101018.16;6121379;23;20006;-84
2022/11/20 06:18:54;;;;;;;25.55;21.55;;;;;;;-1.59;100.00;101025.97;6122043;23;20021;-83
2022/11/20 06:21:22;;;;;;;25.63;22.83;;;;;;;-1.53;100.00;101028.63;6120358;23;20432;-83
2022/11/20 06:23:48;;;;;;;23.95;21.38;;;;;;;-1.45;100.00;101028.63;6121087;23;20010;-83
2022/11/20 06:26:19;;;;;;;24.52;21.40;;;;;;;-1.52;100.00;101019.91;6119450;23;20385;-83
2022/11/20 06:28:45;;;;;;;24.02;21.40;;;;;;;-1.41;100.00;101028.63;6120999;23;20060;-84
2022/11/20 06:31:13;;;;;;;23.60;21.02;;;;;;;-1.42;100.00;101028.63;6118419;23;20154;-84
2022/11/20 06:33:39;;;;;;;26.15;21.83;;;;;;;-1.43;100.00;101012.09;6119863;23;20009;-84
2022/11/20 06:36:04;;;;;;;25.10;21.05;;;;;;;-1.41;100.00;101023.41;6122791;23;20068;-83
2022/11/20 06:38:30;;;;;;;25.08;20.83;;;;;;;-1.38;100.00;101031.25;6122368;23;20008;-83
2022/11/20 06:40:55;;;;;;;24.10;21.05;;;;;;;-1.39;100.00;101021.66;6121371;23;20012;-84
2022/11/20 06:43:22;;;;;;;24.08;21.23;;;;;;;-1.32;100.00;101028.66;6122541;23;20036;-84
2022/11/20 06:45:55;;;;;;;24.45;21.42;;;;;;;-1.32;100.00;101028.66;6121526;23;20010;-84
2022/11/20 06:48:23;;;;;;;24.13;21.52;;;;;;;-1.34;100.00;101021.66;6120986;23;20002;-84
2022/11/20 06:50:48;;;;;;;24.48;21.33;;;;;;;-1.33;100.00;101019.06;6118410;23;20400;-84
2022/11/20 06:53:13;;;;;;;23.35;20.88;;;;;;;-1.33;100.00;101020.81;6120813;23;20006;-84
2022/11/20 06:55:45;;;;;;;24.15;21.55;;;;;;;-1.37;100.00;101008.63;6118565;23;20006;-84
2022/11/20 06:58:12;;;;;;;22.77;20.38;;;;;;;-1.33;100.00;101013.00;6120842;23;20008;-84
2022/11/20 07:00:37;;;;;;;25.08;21.35;;;;;;;-1.39;100.00;100998.16;6119788;23;20511;-84
2022/11/20 07:03:03;;;;;;;23.13;20.55;;;;;;;-1.32;100.00;101018.19;6118563;23;20006;-84
2022/11/20 07:05:29;;;;;;;23.13;20.63;;;;;;;-1.33;100.00;101010.38;6119950;23;20420;-84
2022/11/20 07:07:56;;;;;;;24.27;21.67;;;;;;;-1.30;100.00;101021.66;6120788;23;20033;-84
2022/11/20 07:10:21;;;;;;;23.77;21.17;;;;;;;-1.41;100.00;100997.31;6121109;23;20006;-84
2022/11/20 07:12:51;;;;;;;22.42;20.02;;;;;;;-1.32;100.00;101015.59;6119501;23;20056;-84
2022/11/20 07:15:17;;;;;;;24.63;21.55;;;;;;;-1.31;100.00;101021.69;6120643;23;20042;-83
2022/11/20 07:17:43;;;;;;;23.50;20.92;;;;;;;-1.32;100.00;101014.72;6120722;23;20336;-82
2022/11/20 07:20:08;;;;;;;25.40;21.58;;;;;;;-1.36;100.00;101002.53;6120698;23;20093;-82
2022/11/20 07:22:34;;;;;;;23.13;20.63;;;;;;;-1.37;100.00;101004.28;6119422;23;20009;-82
2022/11/20 07:24:59;;;;;;;24.55;20.88;;;;;;;-1.28;100.00;101011.25;6118462;23;20013;-83
2022/11/20 07:27:24;;;;;;;22.85;20.27;;;;;;;-1.28;100.00;101006.03;6123985;23;20126;-83
2022/11/20 07:29:50;;;;;;;24.00;21.35;;;;;;;-1.24;100.00;100999.06;6127230;23;20002;-83
2022/11/20 07:32:15;;;;;;;23.50;20.67;;;;;;;-1.23;100.00;101004.28;6131783;23;20025;-82
2022/11/20 07:34:40;;;;;;;24.60;20.90;;;;;;;-1.18;100.00;101006.88;6127487;23;20508;-82
2022/11/20 07:37:06;;;;;;;23.13;20.17;;;;;;;-1.25;100.00;100985.13;6123901;23;20009;-82
2022/11/20 07:39:31;;;;;;;23.02;20.55;;;;;;;-1.14;100.00;100993.81;6124883;23;20061;-83
2022/11/20 07:41:56;;;;;;;25.77;21.15;;;;;;;-1.13;100.00;100999.91;6120918;23;20066;-84
2022/11/20 07:44:21;;;;;;;23.05;20.58;;;;;;;-1.14;100.00;100990.34;6122146;23;20006;-84
2022/11/20 07:46:47;;;;;;;24.13;20.15;;;;;;;-1.15;100.00;100994.69;6121268;23;20428;-84
2022/11/20 07:49:12;;;;;;;24.00;20.77;;;;;;;-1.13;100.00;100992.97;6120440;23;20002;-84
2022/11/20 07:51:37;;;;;;;25.33;21.73;;;;;;;-1.08;100.00;101001.66;6118936;23;20006;-83
2022/11/20 07:54:03;;;;;;;25.05;21.52;;;;;;;-1.09;100.00;100999.91;6121225;23;20133;-84
2022/11/20 07:56:28;;;;;;;26.05;21.88;;;;;;;-0.98;100.00;101012.97;6119428;23;20018;-83
2022/11/20 07:58:53;;;;;;;24.60;21.45;;;;;;;-0.97;100.00;101008.59;6120018;23;20010;-84
2022/11/20 08:01:19;;;;;;;23.92;21.33;;;;;;;-0.89;100.00;101004.25;6119581;23;20471;-84
2022/11/20 08:03:44;;;;;;;24.95;20.98;;;;;;;-0.93;99.96;101005.13;6118168;23;20547;-84
2022/11/20 08:06:09;;;;;;;23.23;20.38;;;;;;;-0.83;99.07;101009.47;6120353;23;20015;-85
2022/11/20 08:08:34;;;;;;;25.75;21.50;;;;;;;-0.77;99.62;100999.88;6120509;23;20337;-84
2022/11/20 08:14:11;;;;;;;25.27;21.00;;;;;;;-0.65;99.19;101013.78;6123196;23;20002;-84
2022/11/20 08:16:29;;;;;;;;;;;;;;;-0.37;99.55;101004.13;6125157;23;20029;-86
2022/11/20 08:18:55;;;;;;;23.38;20.85;;;;;;;-0.43;99.39;100999.78;6125417;23;19908;-86
2022/11/20 08:21:20;;;;;;;25.23;22.13;;;;;;;-0.35;99.79;100989.28;6123721;23;20010;-85
2022/11/20 08:23:45;;;;;;;25.15;21.73;;;;;;;-0.28;99.17;100985.78;6125232;23;20037;-85
2022/11/20 08:26:11;;;;;;;26.25;21.88;;;;;;;-0.17;99.25;100990.94;6122784;23;20006;-84
2022/11/20 08:28:36;;;;;;;23.30;20.80;;;;;;;-0.14;98.89;100996.19;6123498;23;20285;-85
2022/11/20 08:31:02;;;;;;;23.98;20.63;;;;;;;-0.21;97.87;100997.06;6124093;23;20081;-83
2022/11/20 08:33:29;;;;;;;23.63;20.27;;;;;;;-0.12;98.53;100997.91;6123925;23;20010;-84
2022/11/20 08:35:59;;;;;;;23.40;20.85;;;;;;;-0.08;98.60;100994.41;6123540;23;20005;-85
2022/11/20 08:38:24;;;;;;;24.10;21.50;;;;;;;-0.12;99.19;100971.75;6120955;23;20006;-85
2022/11/20 08:41:23;;;;;;;24.80;21.73;;;;;;;0.06;98.74;100996.09;6123021;23;20032;-85
2022/11/20 08:43:34;;;;;;;22.73;20.25;;;;;;;0.07;98.55;101000.44;6123576;23;20017;-84
2022/11/20 08:46:00;;;;;;;23.52;20.02;;;;;;;0.14;99.12;100992.53;6125089;23;20010;-84
2022/11/20 08:48:25;;;;;;;25.95;21.55;;;;;;;0.16;98.56;100987.28;6123646;23;20015;-85
2022/11/20 08:50:50;;;;;;;24.98;20.25;;;;;;;0.23;98.45;101002.09;6124851;23;20022;-85
2022/11/20 08:53:16;;;;;;;27.48;22.80;;;;;;;0.31;98.59;101005.53;6123920;23;19998;-85
2022/11/20 08:55:41;;;;;;;26.38;22.33;;;;;;;0.12;98.48;100951.53;6123267;23;20013;-86
2022/11/20 08:58:06;;;;;;;25.42;21.90;;;;;;;0.44;98.09;100988.00;6123337;23;20067;-86
2022/11/20 09:00:32;;;;;;;28.83;21.52;;;;;;;0.55;98.38;100985.31;6125249;23;20009;-87
2022/11/20 09:02:58;;;;;;;27.25;22.25;;;;;;;0.59;98.14;100977.41;6124722;23;20012;-84
2022/11/20 09:05:24;;;;;;;23.63;20.73;;;;;;;0.72;98.07;100986.91;6125167;23;20038;-84
2022/11/20 09:07:49;;;;;;;26.65;21.42;;;;;;;0.78;97.25;100996.44;6122864;23;20017;-84
2022/11/20 09:10:14;;;;;;;26.80;21.58;;;;;;;0.75;97.97;100980.75;6123504;23;20005;-85
2022/11/20 09:12:40;;;;;;;27.67;22.15;;;;;;;0.82;97.72;100985.06;6124102;23;20038;-85
2022/11/20 09:15:05;;;;;;;29.83;22.98;;;;;;;0.87;97.99;100983.25;6124579;23;20555;-84
2022/11/20 09:17:31;;;;;;;29.70;23.45;;;;;;;0.97;98.36;100984.94;6125338;23;20013;-85
2022/11/20 09:19:56;;;;;;;32.58;22.92;;;;;;;1.07;98.44;100980.47;6122732;23;20001;-86
2022/11/20 09:22:21;;;;;;;34.47;24.75;;;;;;;1.06;97.77;100983.97;6122016;23;20006;-86
2022/11/20 09:24:47;;;;;;;36.67;26.77;;;;;;;0.91;98.58;100956.16;6121496;23;20041;-85
2022/11/20 09:27:12;;;;;;;38.20;26.33;;;;;;;0.93;98.89;100946.53;6123272;23;20053;-86
2022/11/20 09:29:37;;;;;;;42.35;26.65;;;;;;;0.96;98.95;100957.00;6122699;23;20436;-85
2022/11/20 09:32:03;;;;;;;43.17;27.25;;;;;;;1.01;98.92;100953.47;6122189;23;20451;-86
2022/11/20 09:34:28;;;;;;;44.63;30.23;;;;;;;1.03;99.50;100955.16;6124346;23;20005;-85
2022/11/20 09:36:53;;;;;;;47.17;30.65;;;;;;;1.10;100.00;100958.59;6125767;23;20009;-85
2022/11/20 09:39:19;;;;;;;43.70;28.27;;;;;;;1.18;100.00;100955.03;6122905;23;20006;-85
2022/11/20 09:42:00;;;;;;;45.95;29.95;;;;;;;1.22;99.97;100954.09;6123952;23;20428;-85
2022/11/20 09:44:48;;;;;;;48.25;30.15;;;;;;;1.30;100.00;100947.91;6126457;23;20428;-85
2022/11/20 09:47:46;;;;;;;46.63;29.30;;;;;;;1.35;100.00;100931.25;6125226;23;20002;-87
2022/11/20 09:50:27;;;;;;;46.05;29.85;;;;;;;1.34;99.81;100932.13;6125477;23;20033;-86
2022/11/20 09:53:13;;;;;;;48.58;30.98;;;;;;;1.35;100.00;100935.63;6122223;23;20005;-86
2022/11/20 09:55:39;;;;;;;46.75;30.77;;;;;;;1.26;100.00;100922.63;6125906;23;20013;-84
2022/11/20 09:58:21;;;;;;;46.15;31.52;;;;;;;1.37;100.00;100934.69;6122441;23;20187;-84
2022/11/20 10:00:48;;;;;;;47.33;31.35;;;;;;;1.33;100.00;100925.13;6121485;23;20090;-85
2022/11/20 10:03:20;;;;;;;49.13;31.77;;;;;;;1.34;100.00;100921.63;6123332;23;20013;-84
2022/11/20 10:05:54;;;;;;;50.83;32.78;;;;;;;1.47;100.00;100925.84;6124174;23;20092;-85
2022/11/20 10:08:25;;;;;;;52.45;33.20;;;;;;;1.57;100.00;100920.47;6122733;23;20453;-84
2022/11/20 10:10:59;;;;;;;48.88;31.17;;;;;;;1.62;100.00;100902.91;6122633;23;20082;-83
2022/11/20 10:13:51;;;;;;;48.42;32.20;;;;;;;1.68;100.00;100900.22;6124007;23;20056;-84
2022/11/20 10:16:30;;;;;;;47.90;31.45;;;;;;;1.69;100.00;100889.69;6119151;23;20072;-85
2022/11/20 10:19:08;;;;;;;51.17;32.38;;;;;;;1.68;100.00;100887.97;6119895;23;20002;-85
2022/11/20 10:21:39;;;;;;;48.88;32.67;;;;;;;1.73;100.00;100882.66;6121056;23;20010;-85
2022/11/20 10:24:28;;;;;;;47.40;30.90;;;;;;;1.65;100.00;100835.53;6123049;23;20010;-82
2022/11/20 10:27:31;;;;;;;45.83;30.48;;;;;;;2.12;99.55;100864.56;6123176;23;20002;-84
2022/11/20 10:30:07;;;;;;;44.25;30.13;;;;;;;2.15;98.39;100862.78;6128371;23;20301;-86
2022/11/20 10:32:37;;;;;;;47.22;29.45;;;;;;;2.12;98.76;100872.44;6126161;23;20010;-79
2022/11/20 10:35:24;;;;;;;41.78;29.35;;;;;;;2.12;98.89;100867.19;6126960;23;20030;-83
2022/11/20 10:38:03;;;;;;;45.55;30.65;;;;;;;2.04;98.77;100853.31;6119531;23;19998;-82
2022/11/20 10:40:31;;;;;;;42.80;29.13;;;;;;;1.96;99.00;100849.06;6119803;23;20068;-82
2022/11/20 10:43:08;;;;;;;46.35;31.70;;;;;;;1.96;99.25;100841.16;6118942;23;20515;-83
2022/11/20 10:45:43;;;;;;;52.05;33.33;;;;;;;2.02;99.51;100832.34;6119174;23;20322;-83
2022/11/20 10:48:22;;;;;;;49.97;32.42;;;;;;;2.08;99.45;100828.75;6121980;23;20022;-89
2022/11/20 10:50:59;;;;;;;51.50;34.35;;;;;;;2.14;99.84;100818.16;6122052;23;20440;-89
2022/11/20 10:53:46;;;;;;;54.97;36.05;;;;;;;2.25;99.68;100811.81;6122808;23;20005;-89
2022/11/20 10:56:29;;;;;;;50.75;33.85;;;;;;;2.30;99.48;100814.41;6123869;23;20014;-88
2022/11/20 10:59:28;;;;;;;54.67;36.10;;;;;;;2.35;99.80;100816.94;6122515;23;20006;-88
2022/11/20 11:01:53;;;;;;;57.47;36.92;;;;;;;2.31;99.57;100799.50;6123374;23;20504;-88
2022/11/20 11:04:27;;;;;;;56.83;38.42;;;;;;;2.31;99.57;100794.25;6121916;23;20017;-87
2022/11/20 11:06:58;;;;;;;58.42;37.97;;;;;;;2.30;100.00;100796.00;6121471;23;20016;-87
2022/11/20 11:09:34;;;;;;;63.22;40.28;;;;;;;2.30;100.00;100781.97;6121457;23;20012;-88
2022/11/20 11:11:59;;;;;;;66.43;41.00;;;;;;;2.39;100.00;100789.72;6123282;23;20002;-89
2022/11/20 11:14:25;;;;;;;62.67;40.83;;;;;;;2.36;100.00;100782.75;6124519;23;20016;-88
2022/11/20 11:16:58;;;;;;;53.22;35.50;;;;;;;2.39;100.00;100784.47;6121129;23;20425;-87